sensor_id;sensor_type;location;lat;lon;timestamp;temperature;humidity
74792;SHT30;63319;46.046;17.802;2022-10-31T00:03:00;19.11;60.51
74792;SHT30;63319;46.046;17.802;2022-10-31T00:06:03;19.10;60.31
74792;SHT30;63319;46.046;17.802;2022-10-31T00:09:09;19.13;60.37
74792;SHT30;63319;46.046;17.802;2022-10-31T00:12:11;19.11;60.13
74792;SHT30;63319;46.046;17.802;2022-10-31T00:15:14;19.10;60.29
74792;SHT30;63319;46.046;17.802;2022-10-31T00:18:20;19.08;59.89
74792;SHT30;63319;46.046;17.802;2022-10-31T00:21:26;19.10;60.55
74792;SHT30;63319;46.046;17.802;2022-10-31T00:24:33;19.08;60.19
74792;SHT30;63319;46.046;17.802;2022-10-31T00:27:35;19.08;60.38
74792;SHT30;63319;46.046;17.802;2022-10-31T00:30:42;19.10;60.46
74792;SHT30;63319;46.046;17.802;2022-10-31T00:33:51;19.08;60.51
74792;SHT30;63319;46.046;17.802;2022-10-31T00:36:54;19.08;60.44
74792;SHT30;63319;46.046;17.802;2022-10-31T00:40:10;19.10;60.23
74792;SHT30;63319;46.046;17.802;2022-10-31T00:43:14;19.08;60.27
74792;SHT30;63319;46.046;17.802;2022-10-31T00:46:16;19.06;60.19
74792;SHT30;63319;46.046;17.802;2022-10-31T00:49:23;19.08;59.98
74792;SHT30;63319;46.046;17.802;2022-10-31T00:52:37;19.08;60.44
74792;SHT30;63319;46.046;17.802;2022-10-31T00:55:44;19.07;60.11
74792;SHT30;63319;46.046;17.802;2022-10-31T00:58:53;19.07;60.28
74792;SHT30;63319;46.046;17.802;2022-10-31T01:01:56;19.08;60.62
74792;SHT30;63319;46.046;17.802;2022-10-31T01:04:59;19.07;60.14
74792;SHT30;63319;46.046;17.802;2022-10-31T01:08:02;19.04;60.51
74792;SHT30;63319;46.046;17.802;2022-10-31T01:14:15;19.04;59.91
74792;SHT30;63319;46.046;17.802;2022-10-31T01:17:21;19.03;60.18
74792;SHT30;63319;46.046;17.802;2022-10-31T01:20:29;19.04;60.18
74792;SHT30;63319;46.046;17.802;2022-10-31T01:23:32;19.04;60.20
74792;SHT30;63319;46.046;17.802;2022-10-31T01:26:38;19.04;60.15
74792;SHT30;63319;46.046;17.802;2022-10-31T01:29:41;19.03;59.98
74792;SHT30;63319;46.046;17.802;2022-10-31T01:32:43;19.03;59.99
74792;SHT30;63319;46.046;17.802;2022-10-31T01:35:46;19.03;60.40
74792;SHT30;63319;46.046;17.802;2022-10-31T01:38:52;19.03;60.42
74792;SHT30;63319;46.046;17.802;2022-10-31T01:41:55;19.03;60.61
74792;SHT30;63319;46.046;17.802;2022-10-31T01:45:00;19.02;60.12
74792;SHT30;63319;46.046;17.802;2022-10-31T01:48:25;19.03;60.01
74792;SHT30;63319;46.046;17.802;2022-10-31T01:51:48;19.03;59.91
74792;SHT30;63319;46.046;17.802;2022-10-31T01:58:31;18.99;60.07
74792;SHT30;63319;46.046;17.802;2022-10-31T02:01:35;19.00;59.99
74792;SHT30;63319;46.046;17.802;2022-10-31T02:04:40;19.00;60.24
74792;SHT30;63319;46.046;17.802;2022-10-31T02:11:25;18.99;60.22
74792;SHT30;63319;46.046;17.802;2022-10-31T02:14:30;18.97;59.85
74792;SHT30;63319;46.046;17.802;2022-10-31T02:17:38;18.99;60.09
74792;SHT30;63319;46.046;17.802;2022-10-31T02:34:22;18.99;60.55
74792;SHT30;63319;46.046;17.802;2022-10-31T02:37:36;18.96;60.10
74792;SHT30;63319;46.046;17.802;2022-10-31T02:40:51;18.96;60.24
74792;SHT30;63319;46.046;17.802;2022-10-31T02:47:41;18.93;60.36
74792;SHT30;63319;46.046;17.802;2022-10-31T02:50:57;18.94;60.29
74792;SHT30;63319;46.046;17.802;2022-10-31T02:54:03;18.94;60.09
74792;SHT30;63319;46.046;17.802;2022-10-31T02:57:06;18.93;59.91
74792;SHT30;63319;46.046;17.802;2022-10-31T03:00:10;18.94;60.17
74792;SHT30;63319;46.046;17.802;2022-10-31T03:03:19;18.93;60.35
74792;SHT30;63319;46.046;17.802;2022-10-31T03:16:49;18.92;60.49
74792;SHT30;63319;46.046;17.802;2022-10-31T03:19:53;18.94;60.24
74792;SHT30;63319;46.046;17.802;2022-10-31T03:22:59;18.93;60.24
74792;SHT30;63319;46.046;17.802;2022-10-31T03:26:06;18.93;60.16
74792;SHT30;63319;46.046;17.802;2022-10-31T03:29:15;18.92;60.45
74792;SHT30;63319;46.046;17.802;2022-10-31T03:32:32;18.92;60.49
74792;SHT30;63319;46.046;17.802;2022-10-31T03:35:41;18.93;60.34
74792;SHT30;63319;46.046;17.802;2022-10-31T03:38:47;18.87;60.50
74792;SHT30;63319;46.046;17.802;2022-10-31T03:42:20;18.92;60.54
74792;SHT30;63319;46.046;17.802;2022-10-31T03:45:28;18.90;60.49
74792;SHT30;63319;46.046;17.802;2022-10-31T03:48:35;18.93;60.34
74792;SHT30;63319;46.046;17.802;2022-10-31T03:55:19;18.90;60.46
74792;SHT30;63319;46.046;17.802;2022-10-31T03:58:32;18.90;60.51
74792;SHT30;63319;46.046;17.802;2022-10-31T04:01:47;18.90;60.44
74792;SHT30;63319;46.046;17.802;2022-10-31T04:05:08;18.90;60.35
74792;SHT30;63319;46.046;17.802;2022-10-31T04:08:30;18.90;60.34
74792;SHT30;63319;46.046;17.802;2022-10-31T04:11:38;18.90;60.19
74792;SHT30;63319;46.046;17.802;2022-10-31T04:15:09;18.87;60.49
74792;SHT30;63319;46.046;17.802;2022-10-31T04:18:17;18.89;60.41
74792;SHT30;63319;46.046;17.802;2022-10-31T04:21:29;18.89;60.72
74792;SHT30;63319;46.046;17.802;2022-10-31T04:24:45;18.87;60.20
74792;SHT30;63319;46.046;17.802;2022-10-31T04:27:50;18.87;60.42
74792;SHT30;63319;46.046;17.802;2022-10-31T04:30:58;18.89;60.34
74792;SHT30;63319;46.046;17.802;2022-10-31T04:34:12;18.87;60.36
74792;SHT30;63319;46.046;17.802;2022-10-31T04:37:16;18.87;60.35
74792;SHT30;63319;46.046;17.802;2022-10-31T04:40:19;18.86;60.35
74792;SHT30;63319;46.046;17.802;2022-10-31T04:43:55;18.89;60.44
74792;SHT30;63319;46.046;17.802;2022-10-31T04:46:58;18.86;60.38
74792;SHT30;63319;46.046;17.802;2022-10-31T04:50:02;18.89;60.48
74792;SHT30;63319;46.046;17.802;2022-10-31T04:53:11;18.87;60.24
74792;SHT30;63319;46.046;17.802;2022-10-31T04:56:36;18.85;60.47
74792;SHT30;63319;46.046;17.802;2022-10-31T04:59:52;18.89;60.27
74792;SHT30;63319;46.046;17.802;2022-10-31T05:02:59;18.86;60.21
74792;SHT30;63319;46.046;17.802;2022-10-31T05:06:06;18.86;60.40
74792;SHT30;63319;46.046;17.802;2022-10-31T05:09:09;18.87;60.17
74792;SHT30;63319;46.046;17.802;2022-10-31T05:12:13;18.86;60.25
74792;SHT30;63319;46.046;17.802;2022-10-31T05:15:34;18.85;60.14
74792;SHT30;63319;46.046;17.802;2022-10-31T05:19:06;18.83;60.24
74792;SHT30;63319;46.046;17.802;2022-10-31T05:22:35;18.82;60.26
74792;SHT30;63319;46.046;17.802;2022-10-31T05:25:39;18.85;60.51
74792;SHT30;63319;46.046;17.802;2022-10-31T05:28:43;18.85;60.33
74792;SHT30;63319;46.046;17.802;2022-10-31T05:31:47;18.83;60.11
74792;SHT30;63319;46.046;17.802;2022-10-31T05:35:13;18.83;60.49
74792;SHT30;63319;46.046;17.802;2022-10-31T05:38:43;18.83;60.09
74792;SHT30;63319;46.046;17.802;2022-10-31T05:41:54;18.83;60.57
74792;SHT30;63319;46.046;17.802;2022-10-31T05:45:01;18.79;60.24
74792;SHT30;63319;46.046;17.802;2022-10-31T05:48:19;18.83;60.23
74792;SHT30;63319;46.046;17.802;2022-10-31T05:51:40;18.82;60.31
74792;SHT30;63319;46.046;17.802;2022-10-31T05:54:44;18.80;60.48
74792;SHT30;63319;46.046;17.802;2022-10-31T05:57:47;18.79;60.05
74792;SHT30;63319;46.046;17.802;2022-10-31T06:00:49;18.80;60.53
74792;SHT30;63319;46.046;17.802;2022-10-31T06:03:52;18.82;60.14
74792;SHT30;63319;46.046;17.802;2022-10-31T06:06:57;18.82;60.00
74792;SHT30;63319;46.046;17.802;2022-10-31T06:10:02;18.82;60.15
74792;SHT30;63319;46.046;17.802;2022-10-31T06:13:05;18.82;60.30
74792;SHT30;63319;46.046;17.802;2022-10-31T06:16:17;18.82;60.24
74792;SHT30;63319;46.046;17.802;2022-10-31T06:19:21;18.82;60.38
74792;SHT30;63319;46.046;17.802;2022-10-31T06:22:24;18.82;60.06
74792;SHT30;63319;46.046;17.802;2022-10-31T06:25:27;18.77;60.00
74792;SHT30;63319;46.046;17.802;2022-10-31T06:28:30;18.79;60.10
74792;SHT30;63319;46.046;17.802;2022-10-31T06:31:51;18.79;60.18
74792;SHT30;63319;46.046;17.802;2022-10-31T06:34:57;18.83;60.56
74792;SHT30;63319;46.046;17.802;2022-10-31T06:38:00;18.83;60.11
74792;SHT30;63319;46.046;17.802;2022-10-31T06:41:12;18.80;60.33
74792;SHT30;63319;46.046;17.802;2022-10-31T06:44:22;18.82;60.30
74792;SHT30;63319;46.046;17.802;2022-10-31T06:47:34;18.85;60.14
74792;SHT30;63319;46.046;17.802;2022-10-31T06:51:01;18.85;59.81
74792;SHT30;63319;46.046;17.802;2022-10-31T06:54:05;18.86;60.13
74792;SHT30;63319;46.046;17.802;2022-10-31T06:57:11;18.85;60.31
74792;SHT30;63319;46.046;17.802;2022-10-31T07:00:15;18.83;60.13
74792;SHT30;63319;46.046;17.802;2022-10-31T07:03:23;18.83;60.07
74792;SHT30;63319;46.046;17.802;2022-10-31T07:06:26;18.85;60.37
74792;SHT30;63319;46.046;17.802;2022-10-31T07:09:29;18.86;59.71
74792;SHT30;63319;46.046;17.802;2022-10-31T07:12:36;18.87;59.87
74792;SHT30;63319;46.046;17.802;2022-10-31T07:15:40;18.87;60.28
74792;SHT30;63319;46.046;17.802;2022-10-31T07:18:43;18.87;60.01
74792;SHT30;63319;46.046;17.802;2022-10-31T07:21:47;18.87;59.68
74792;SHT30;63319;46.046;17.802;2022-10-31T07:24:50;18.89;60.18
74792;SHT30;63319;46.046;17.802;2022-10-31T07:27:53;18.92;60.16
74792;SHT30;63319;46.046;17.802;2022-10-31T07:31:00;18.90;59.89
74792;SHT30;63319;46.046;17.802;2022-10-31T07:34:03;18.92;60.06
74792;SHT30;63319;46.046;17.802;2022-10-31T07:37:27;18.93;59.82
74792;SHT30;63319;46.046;17.802;2022-10-31T07:40:30;18.90;59.95
74792;SHT30;63319;46.046;17.802;2022-10-31T07:43:33;18.94;60.13
74792;SHT30;63319;46.046;17.802;2022-10-31T07:46:51;18.94;60.00
74792;SHT30;63319;46.046;17.802;2022-10-31T07:50:20;18.97;59.97
74792;SHT30;63319;46.046;17.802;2022-10-31T07:53:52;18.96;59.72
74792;SHT30;63319;46.046;17.802;2022-10-31T07:56:59;18.97;59.77
74792;SHT30;63319;46.046;17.802;2022-10-31T08:00:08;18.97;59.94
74792;SHT30;63319;46.046;17.802;2022-10-31T08:03:17;18.99;59.95
74792;SHT30;63319;46.046;17.802;2022-10-31T08:06:39;19.00;59.50
74792;SHT30;63319;46.046;17.802;2022-10-31T08:09:54;18.99;59.76
74792;SHT30;63319;46.046;17.802;2022-10-31T08:13:07;19.02;59.82
74792;SHT30;63319;46.046;17.802;2022-10-31T08:16:13;19.03;59.88
74792;SHT30;63319;46.046;17.802;2022-10-31T08:19:27;19.03;59.70
74792;SHT30;63319;46.046;17.802;2022-10-31T08:22:30;19.03;59.44
74792;SHT30;63319;46.046;17.802;2022-10-31T08:25:38;19.04;59.44
74792;SHT30;63319;46.046;17.802;2022-10-31T08:28:42;19.04;59.48
74792;SHT30;63319;46.046;17.802;2022-10-31T08:31:45;19.06;59.68
74792;SHT30;63319;46.046;17.802;2022-10-31T08:35:26;19.06;59.66
74792;SHT30;63319;46.046;17.802;2022-10-31T08:38:50;19.11;59.87
74792;SHT30;63319;46.046;17.802;2022-10-31T08:41:53;19.10;59.36
74792;SHT30;63319;46.046;17.802;2022-10-31T08:44:56;19.10;59.64
74792;SHT30;63319;46.046;17.802;2022-10-31T08:48:04;19.11;59.43
74792;SHT30;63319;46.046;17.802;2022-10-31T08:51:08;19.13;59.03
74792;SHT30;63319;46.046;17.802;2022-10-31T08:54:12;19.13;59.48
74792;SHT30;63319;46.046;17.802;2022-10-31T08:57:34;19.15;58.92
74792;SHT30;63319;46.046;17.802;2022-10-31T09:00:38;19.15;59.36
74792;SHT30;63319;46.046;17.802;2022-10-31T09:03:49;19.17;59.51
74792;SHT30;63319;46.046;17.802;2022-10-31T09:06:52;19.17;59.48
74792;SHT30;63319;46.046;17.802;2022-10-31T09:10:15;19.18;59.43
74792;SHT30;63319;46.046;17.802;2022-10-31T09:13:21;19.18;59.31
74792;SHT30;63319;46.046;17.802;2022-10-31T09:16:51;19.20;59.52
74792;SHT30;63319;46.046;17.802;2022-10-31T09:19:58;19.18;59.25
74792;SHT30;63319;46.046;17.802;2022-10-31T09:23:09;19.20;59.09
74792;SHT30;63319;46.046;17.802;2022-10-31T09:26:19;19.23;59.14
74792;SHT30;63319;46.046;17.802;2022-10-31T09:29:38;19.23;59.38
74792;SHT30;63319;46.046;17.802;2022-10-31T09:32:46;19.27;58.56
74792;SHT30;63319;46.046;17.802;2022-10-31T09:35:49;19.27;58.89
74792;SHT30;63319;46.046;17.802;2022-10-31T09:38:55;19.28;58.82
74792;SHT30;63319;46.046;17.802;2022-10-31T09:46:04;19.28;58.82
74792;SHT30;63319;46.046;17.802;2022-10-31T10:02:30;19.36;58.71
74792;SHT30;63319;46.046;17.802;2022-10-31T10:06:27;19.34;58.79
74792;SHT30;63319;46.046;17.802;2022-10-31T10:10:24;19.35;58.97
74792;SHT30;63319;46.046;17.802;2022-10-31T10:17:44;19.35;58.78
74792;SHT30;63319;46.046;17.802;2022-10-31T10:21:09;19.35;59.17
74792;SHT30;63319;46.046;17.802;2022-10-31T10:24:55;19.34;59.13
74792;SHT30;63319;46.046;17.802;2022-10-31T10:28:35;19.34;59.05
74792;SHT30;63319;46.046;17.802;2022-10-31T10:31:42;19.35;58.77
74792;SHT30;63319;46.046;17.802;2022-10-31T10:34:52;19.38;58.76
74792;SHT30;63319;46.046;17.802;2022-10-31T10:41:48;19.39;58.67
74792;SHT30;63319;46.046;17.802;2022-10-31T10:45:17;19.41;58.86
74792;SHT30;63319;46.046;17.802;2022-10-31T10:52:29;19.42;58.65
74792;SHT30;63319;46.046;17.802;2022-10-31T10:55:59;19.45;58.78
74792;SHT30;63319;46.046;17.802;2022-10-31T10:59:05;19.44;58.15
74792;SHT30;63319;46.046;17.802;2022-10-31T11:02:30;19.45;58.42
74792;SHT30;63319;46.046;17.802;2022-10-31T11:05:37;19.44;58.96
74792;SHT30;63319;46.046;17.802;2022-10-31T11:08:41;19.45;58.81
74792;SHT30;63319;46.046;17.802;2022-10-31T11:11:44;19.44;58.80
74792;SHT30;63319;46.046;17.802;2022-10-31T11:14:56;19.47;58.92
74792;SHT30;63319;46.046;17.802;2022-10-31T11:18:01;19.47;58.66
74792;SHT30;63319;46.046;17.802;2022-10-31T11:21:05;19.47;58.87
74792;SHT30;63319;46.046;17.802;2022-10-31T11:27:14;19.48;58.96
74792;SHT30;63319;46.046;17.802;2022-10-31T11:30:20;19.52;58.75
74792;SHT30;63319;46.046;17.802;2022-10-31T11:33:32;19.51;58.90
74792;SHT30;63319;46.046;17.802;2022-10-31T11:36:37;19.52;58.76
74792;SHT30;63319;46.046;17.802;2022-10-31T11:39:44;19.52;58.67
74792;SHT30;63319;46.046;17.802;2022-10-31T11:42:48;19.50;58.71
74792;SHT30;63319;46.046;17.802;2022-10-31T11:45:52;19.52;58.72
74792;SHT30;63319;46.046;17.802;2022-10-31T11:48:55;19.51;58.71
74792;SHT30;63319;46.046;17.802;2022-10-31T11:55:34;19.55;58.63
74792;SHT30;63319;46.046;17.802;2022-10-31T11:58:37;19.57;58.80
74792;SHT30;63319;46.046;17.802;2022-10-31T12:01:48;19.58;58.67
74792;SHT30;63319;46.046;17.802;2022-10-31T12:08:00;19.55;58.80
74792;SHT30;63319;46.046;17.802;2022-10-31T12:11:34;19.55;58.61
74792;SHT30;63319;46.046;17.802;2022-10-31T12:25:21;19.58;58.33
74792;SHT30;63319;46.046;17.802;2022-10-31T12:45:39;19.97;57.49
74792;SHT30;63319;46.046;17.802;2022-10-31T12:58:45;19.97;57.45
74792;SHT30;63319;46.046;17.802;2022-10-31T13:05:30;19.90;57.72
74792;SHT30;63319;46.046;17.802;2022-10-31T13:08:39;19.87;57.83
74792;SHT30;63319;46.046;17.802;2022-10-31T13:12:00;19.85;57.94
74792;SHT30;63319;46.046;17.802;2022-10-31T13:15:15;19.81;58.02
74792;SHT30;63319;46.046;17.802;2022-10-31T13:18:33;19.81;58.06
74792;SHT30;63319;46.046;17.802;2022-10-31T13:21:57;19.79;58.03
74792;SHT30;63319;46.046;17.802;2022-10-31T13:28:28;19.81;57.98
74792;SHT30;63319;46.046;17.802;2022-10-31T13:31:33;19.82;57.93
74792;SHT30;63319;46.046;17.802;2022-10-31T13:34:50;19.82;57.99
74792;SHT30;63319;46.046;17.802;2022-10-31T13:38:18;19.83;57.96
74792;SHT30;63319;46.046;17.802;2022-10-31T13:41:48;19.82;57.93
74792;SHT30;63319;46.046;17.802;2022-10-31T13:44:52;19.85;57.86
74792;SHT30;63319;46.046;17.802;2022-10-31T13:48:00;19.83;57.89
74792;SHT30;63319;46.046;17.802;2022-10-31T13:51:09;19.85;57.79
74792;SHT30;63319;46.046;17.802;2022-10-31T13:54:30;19.86;57.83
74792;SHT30;63319;46.046;17.802;2022-10-31T13:57:43;19.83;57.90
74792;SHT30;63319;46.046;17.802;2022-10-31T14:04:16;19.82;57.94
74792;SHT30;63319;46.046;17.802;2022-10-31T14:07:28;19.79;58.12
74792;SHT30;63319;46.046;17.802;2022-10-31T14:10:38;19.79;58.09
74792;SHT30;63319;46.046;17.802;2022-10-31T14:13:48;19.71;58.24
74792;SHT30;63319;46.046;17.802;2022-10-31T14:16:56;19.72;58.04
74792;SHT30;63319;46.046;17.802;2022-10-31T14:20:24;19.71;58.24
74792;SHT30;63319;46.046;17.802;2022-10-31T14:26:35;19.66;58.37
74792;SHT30;63319;46.046;17.802;2022-10-31T14:29:39;19.66;58.41
74792;SHT30;63319;46.046;17.802;2022-10-31T14:32:42;19.62;58.48
74792;SHT30;63319;46.046;17.802;2022-10-31T14:52:50;19.52;58.73
74792;SHT30;63319;46.046;17.802;2022-10-31T14:55:55;19.55;58.81
74792;SHT30;63319;46.046;17.802;2022-10-31T14:59:11;19.54;58.78
74792;SHT30;63319;46.046;17.802;2022-10-31T15:02:34;19.52;58.76
74792;SHT30;63319;46.046;17.802;2022-10-31T15:05:49;19.48;58.95
74792;SHT30;63319;46.046;17.802;2022-10-31T15:08:54;19.48;58.90
74792;SHT30;63319;46.046;17.802;2022-10-31T15:12:01;19.50;58.96
74792;SHT30;63319;46.046;17.802;2022-10-31T15:15:26;19.45;58.97
74792;SHT30;63319;46.046;17.802;2022-10-31T15:18:29;19.42;58.96
74792;SHT30;63319;46.046;17.802;2022-10-31T15:21:45;19.45;58.95
74792;SHT30;63319;46.046;17.802;2022-10-31T15:24:57;19.39;59.08
74792;SHT30;63319;46.046;17.802;2022-10-31T15:28:13;19.42;59.08
74792;SHT30;63319;46.046;17.802;2022-10-31T15:31:16;19.38;59.07
74792;SHT30;63319;46.046;17.802;2022-10-31T15:34:29;19.39;59.13
74792;SHT30;63319;46.046;17.802;2022-10-31T15:37:34;19.36;59.05
74792;SHT30;63319;46.046;17.802;2022-10-31T15:40:51;19.32;59.14
74792;SHT30;63319;46.046;17.802;2022-10-31T15:44:02;19.34;59.05
74792;SHT30;63319;46.046;17.802;2022-10-31T15:47:19;19.32;59.26
74792;SHT30;63319;46.046;17.802;2022-10-31T15:50:39;19.30;59.16
74792;SHT30;63319;46.046;17.802;2022-10-31T15:53:50;19.31;59.25
74792;SHT30;63319;46.046;17.802;2022-10-31T15:56:54;19.28;59.28
74792;SHT30;63319;46.046;17.802;2022-10-31T15:59:57;19.25;59.43
74792;SHT30;63319;46.046;17.802;2022-10-31T16:03:24;19.25;59.44
74792;SHT30;63319;46.046;17.802;2022-10-31T16:06:28;19.25;59.52
74792;SHT30;63319;46.046;17.802;2022-10-31T16:09:31;19.21;59.23
74792;SHT30;63319;46.046;17.802;2022-10-31T16:12:42;19.23;59.37
74792;SHT30;63319;46.046;17.802;2022-10-31T16:15:52;19.23;59.30
74792;SHT30;63319;46.046;17.802;2022-10-31T16:19:29;19.20;59.53
74792;SHT30;63319;46.046;17.802;2022-10-31T16:22:35;19.18;59.38
74792;SHT30;63319;46.046;17.802;2022-10-31T16:25:39;19.18;59.54
74792;SHT30;63319;46.046;17.802;2022-10-31T16:28:51;19.20;59.70
74792;SHT30;63319;46.046;17.802;2022-10-31T16:35:41;19.14;59.63
74792;SHT30;63319;46.046;17.802;2022-10-31T16:38:48;19.14;59.67
74792;SHT30;63319;46.046;17.802;2022-10-31T16:41:54;19.13;59.64
74792;SHT30;63319;46.046;17.802;2022-10-31T16:45:05;19.11;59.77
74792;SHT30;63319;46.046;17.802;2022-10-31T16:48:12;19.11;59.78
74792;SHT30;63319;46.046;17.802;2022-10-31T16:51:17;19.10;59.58
74792;SHT30;63319;46.046;17.802;2022-10-31T16:54:20;19.10;59.65
74792;SHT30;63319;46.046;17.802;2022-10-31T16:57:26;19.11;59.58
74792;SHT30;63319;46.046;17.802;2022-10-31T17:00:31;19.08;59.55
74792;SHT30;63319;46.046;17.802;2022-10-31T17:03:35;19.08;59.57
74792;SHT30;63319;46.046;17.802;2022-10-31T17:06:38;19.06;59.70
74792;SHT30;63319;46.046;17.802;2022-10-31T17:09:41;19.06;59.56
74792;SHT30;63319;46.046;17.802;2022-10-31T17:12:46;19.03;59.71
74792;SHT30;63319;46.046;17.802;2022-10-31T17:15:53;19.06;59.61
74792;SHT30;63319;46.046;17.802;2022-10-31T17:18:57;19.03;59.75
74792;SHT30;63319;46.046;17.802;2022-10-31T17:22:01;19.04;59.79
74792;SHT30;63319;46.046;17.802;2022-10-31T17:25:05;19.02;59.52
74792;SHT30;63319;46.046;17.802;2022-10-31T17:28:11;19.00;59.78
74792;SHT30;63319;46.046;17.802;2022-10-31T17:31:36;19.00;59.94
74792;SHT30;63319;46.046;17.802;2022-10-31T17:34:41;18.99;59.80
74792;SHT30;63319;46.046;17.802;2022-10-31T17:37:45;18.99;59.99
74792;SHT30;63319;46.046;17.802;2022-10-31T17:40:52;18.99;59.65
74792;SHT30;63319;46.046;17.802;2022-10-31T17:43:57;18.97;59.87
74792;SHT30;63319;46.046;17.802;2022-10-31T17:47:00;19.00;59.66
74792;SHT30;63319;46.046;17.802;2022-10-31T17:50:05;18.94;59.59
74792;SHT30;63319;46.046;17.802;2022-10-31T17:53:09;18.96;59.85
74792;SHT30;63319;46.046;17.802;2022-10-31T17:56:12;18.94;59.57
74792;SHT30;63319;46.046;17.802;2022-10-31T17:59:16;18.93;59.94
74792;SHT30;63319;46.046;17.802;2022-10-31T18:02:24;18.92;59.92
74792;SHT30;63319;46.046;17.802;2022-10-31T18:05:32;18.93;60.15
74792;SHT30;63319;46.046;17.802;2022-10-31T18:08:43;18.93;59.85
74792;SHT30;63319;46.046;17.802;2022-10-31T18:11:48;18.92;60.15
74792;SHT30;63319;46.046;17.802;2022-10-31T18:14:52;18.92;60.20
74792;SHT30;63319;46.046;17.802;2022-10-31T18:17:56;18.92;60.05
74792;SHT30;63319;46.046;17.802;2022-10-31T18:21:01;18.90;60.20
74792;SHT30;63319;46.046;17.802;2022-10-31T18:24:05;18.92;60.06
74792;SHT30;63319;46.046;17.802;2022-10-31T18:27:09;18.92;60.22
74792;SHT30;63319;46.046;17.802;2022-10-31T18:30:13;18.90;60.09
74792;SHT30;63319;46.046;17.802;2022-10-31T18:33:17;18.89;60.29
74792;SHT30;63319;46.046;17.802;2022-10-31T18:36:21;18.86;59.77
74792;SHT30;63319;46.046;17.802;2022-10-31T18:39:25;18.87;59.82
74792;SHT30;63319;46.046;17.802;2022-10-31T18:42:28;18.87;59.92
74792;SHT30;63319;46.046;17.802;2022-10-31T18:45:33;18.90;60.07
74792;SHT30;63319;46.046;17.802;2022-10-31T18:48:49;18.87;60.10
74792;SHT30;63319;46.046;17.802;2022-10-31T18:51:54;18.87;60.02
74792;SHT30;63319;46.046;17.802;2022-10-31T18:54:58;18.85;59.92
74792;SHT30;63319;46.046;17.802;2022-10-31T18:58:03;18.85;60.17
74792;SHT30;63319;46.046;17.802;2022-10-31T19:01:10;18.83;60.09
74792;SHT30;63319;46.046;17.802;2022-10-31T19:04:16;18.85;60.03
74792;SHT30;63319;46.046;17.802;2022-10-31T19:07:19;18.86;60.01
74792;SHT30;63319;46.046;17.802;2022-10-31T19:10:23;18.80;59.97
74792;SHT30;63319;46.046;17.802;2022-10-31T19:13:45;18.80;60.12
74792;SHT30;63319;46.046;17.802;2022-10-31T19:16:49;18.83;60.37
74792;SHT30;63319;46.046;17.802;2022-10-31T19:19:54;18.82;60.06
74792;SHT30;63319;46.046;17.802;2022-10-31T19:23:00;18.80;59.92
74792;SHT30;63319;46.046;17.802;2022-10-31T19:26:04;18.79;60.14
74792;SHT30;63319;46.046;17.802;2022-10-31T19:29:08;18.79;60.30
74792;SHT30;63319;46.046;17.802;2022-10-31T19:32:13;18.79;60.16
74792;SHT30;63319;46.046;17.802;2022-10-31T19:35:17;18.79;60.24
74792;SHT30;63319;46.046;17.802;2022-10-31T19:38:23;18.75;60.08
74792;SHT30;63319;46.046;17.802;2022-10-31T19:41:28;18.77;60.17
74792;SHT30;63319;46.046;17.802;2022-10-31T19:44:32;18.77;60.09
74792;SHT30;63319;46.046;17.802;2022-10-31T19:47:37;18.77;60.32
74792;SHT30;63319;46.046;17.802;2022-10-31T19:50:41;18.75;59.89
74792;SHT30;63319;46.046;17.802;2022-10-31T19:53:46;18.75;60.12
74792;SHT30;63319;46.046;17.802;2022-10-31T19:56:49;18.76;60.39
74792;SHT30;63319;46.046;17.802;2022-10-31T19:59:54;18.75;60.17
74792;SHT30;63319;46.046;17.802;2022-10-31T20:03:09;18.72;60.38
74792;SHT30;63319;46.046;17.802;2022-10-31T20:06:22;18.73;60.56
74792;SHT30;63319;46.046;17.802;2022-10-31T20:09:32;18.72;60.47
74792;SHT30;63319;46.046;17.802;2022-10-31T20:12:52;18.72;60.45
74792;SHT30;63319;46.046;17.802;2022-10-31T20:15:58;18.73;60.12
74792;SHT30;63319;46.046;17.802;2022-10-31T20:19:03;18.73;60.39
74792;SHT30;63319;46.046;17.802;2022-10-31T20:22:07;18.75;60.23
74792;SHT30;63319;46.046;17.802;2022-10-31T20:25:11;18.73;60.29
74792;SHT30;63319;46.046;17.802;2022-10-31T20:28:15;18.73;60.45
74792;SHT30;63319;46.046;17.802;2022-10-31T20:31:23;18.72;60.40
74792;SHT30;63319;46.046;17.802;2022-10-31T20:34:28;18.75;60.59
74792;SHT30;63319;46.046;17.802;2022-10-31T20:37:32;18.72;60.11
74792;SHT30;63319;46.046;17.802;2022-10-31T20:40:36;18.70;60.07
74792;SHT30;63319;46.046;17.802;2022-10-31T20:43:40;18.72;60.47
74792;SHT30;63319;46.046;17.802;2022-10-31T20:46:43;18.72;59.97
74792;SHT30;63319;46.046;17.802;2022-10-31T20:49:47;18.69;60.24
74792;SHT30;63319;46.046;17.802;2022-10-31T20:52:50;18.70;60.17
74792;SHT30;63319;46.046;17.802;2022-10-31T20:56:13;18.70;60.25
74792;SHT30;63319;46.046;17.802;2022-10-31T20:59:18;18.67;60.05
74792;SHT30;63319;46.046;17.802;2022-10-31T21:02:21;18.70;60.34
74792;SHT30;63319;46.046;17.802;2022-10-31T21:05:25;18.69;60.50
74792;SHT30;63319;46.046;17.802;2022-10-31T21:08:29;18.69;60.17
74792;SHT30;63319;46.046;17.802;2022-10-31T21:11:33;18.66;60.27
74792;SHT30;63319;46.046;17.802;2022-10-31T21:14:36;18.67;60.06
74792;SHT30;63319;46.046;17.802;2022-10-31T21:17:40;18.67;60.29
74792;SHT30;63319;46.046;17.802;2022-10-31T21:20:46;18.67;60.30
74792;SHT30;63319;46.046;17.802;2022-10-31T21:23:57;18.65;60.39
74792;SHT30;63319;46.046;17.802;2022-10-31T21:26:59;18.67;60.34
74792;SHT30;63319;46.046;17.802;2022-10-31T21:30:04;18.65;59.91
74792;SHT30;63319;46.046;17.802;2022-10-31T21:33:07;18.67;60.23
74792;SHT30;63319;46.046;17.802;2022-10-31T21:36:10;18.66;59.99
74792;SHT30;63319;46.046;17.802;2022-10-31T21:39:13;18.65;60.31
74792;SHT30;63319;46.046;17.802;2022-10-31T21:42:16;18.65;60.49
74792;SHT30;63319;46.046;17.802;2022-10-31T21:45:23;18.66;60.43
74792;SHT30;63319;46.046;17.802;2022-10-31T21:48:25;18.66;60.40
74792;SHT30;63319;46.046;17.802;2022-10-31T21:51:32;18.63;60.39
74792;SHT30;63319;46.046;17.802;2022-10-31T21:54:36;18.65;60.19
74792;SHT30;63319;46.046;17.802;2022-10-31T21:57:39;18.65;60.02
74792;SHT30;63319;46.046;17.802;2022-10-31T22:00:41;18.63;60.07
74792;SHT30;63319;46.046;17.802;2022-10-31T22:03:44;18.60;60.07
74792;SHT30;63319;46.046;17.802;2022-10-31T22:06:47;18.62;60.16
74792;SHT30;63319;46.046;17.802;2022-10-31T22:09:50;18.62;60.06